createdAt,value
2022-11-16T00:00:07.612Z,88.42
2022-11-16T00:00:22.615Z,86.56
2022-11-16T00:00:37.615Z,88.41
2022-11-16T00:00:52.631Z,89.92
2022-11-16T00:01:07.633Z,87.40
2022-11-16T00:01:22.627Z,87.80
2022-11-16T00:01:37.741Z,89.75
2022-11-16T00:01:52.768Z,88.22
2022-11-16T00:02:07.661Z,88.22
2022-11-16T00:02:22.680Z,88.35
2022-11-16T00:02:37.663Z,87.81
2022-11-16T00:02:52.598Z,89.85
2022-11-16T00:03:07.610Z,89.45
2022-11-16T00:03:22.598Z,86.79
2022-11-16T00:03:37.608Z,91.00
2022-11-16T00:03:52.626Z,91.33
2022-11-16T00:04:07.590Z,90.83
2022-11-16T00:04:22.596Z,89.75
2022-11-16T00:04:38.392Z,89.54
2022-11-16T00:04:52.602Z,89.73
2022-11-16T00:05:07.598Z,90.54
2022-11-16T00:05:28.010Z,87.28
2022-11-16T00:05:38.581Z,87.32
2022-11-16T00:05:52.588Z,87.43
2022-11-16T00:06:07.591Z,87.51
2022-11-16T00:06:22.630Z,87.60
2022-11-16T00:06:37.594Z,87.67
2022-11-16T00:06:52.623Z,87.59
2022-11-16T00:07:07.647Z,87.95
2022-11-16T00:07:22.607Z,88.00
2022-11-16T00:07:37.701Z,87.89
2022-11-16T00:07:52.584Z,88.06
2022-11-16T00:08:07.572Z,88.21
2022-11-16T00:08:22.576Z,88.67
2022-11-16T00:08:37.584Z,88.23
2022-11-16T00:08:52.611Z,88.54
2022-11-16T00:09:07.570Z,88.76
2022-11-16T00:09:22.603Z,90.26
2022-11-16T00:09:37.567Z,90.95
2022-11-16T00:09:52.585Z,92.54
2022-11-16T00:10:07.597Z,93.03
2022-11-16T00:10:22.582Z,94.25
2022-11-16T00:10:37.571Z,94.69
2022-11-16T00:10:52.562Z,92.43
2022-11-16T00:11:07.589Z,92.00
2022-11-16T00:11:22.556Z,95.49
2022-11-16T00:11:37.557Z,90.87
2022-11-16T00:11:52.570Z,92.58
2022-11-16T00:12:07.566Z,95.28
2022-11-16T00:12:22.565Z,95.22
2022-11-16T00:12:37.550Z,92.00
2022-11-16T00:12:52.556Z,93.13
2022-11-16T00:13:07.547Z,95.19
2022-11-16T00:13:22.551Z,92.47
2022-11-16T00:13:37.562Z,95.99
2022-11-16T00:13:52.542Z,94.21
2022-11-16T00:14:07.592Z,93.78
2022-11-16T00:14:22.550Z,93.36
2022-11-16T00:14:37.541Z,94.21
2022-11-16T00:14:52.541Z,92.36
2022-11-16T00:15:07.535Z,93.31
2022-11-16T00:15:22.530Z,95.57
2022-11-16T00:15:37.542Z,95.87
2022-11-16T00:15:52.531Z,95.25
2022-11-16T00:16:07.535Z,96.94
2022-11-16T00:16:22.537Z,92.99
2022-11-16T00:16:37.526Z,96.11
2022-11-16T00:16:52.521Z,96.00
2022-11-16T00:17:07.542Z,95.75
2022-11-16T00:17:22.531Z,93.29
2022-11-16T00:17:37.528Z,94.85
2022-11-16T00:17:52.521Z,96.88
2022-11-16T00:18:07.533Z,96.14
2022-11-16T00:18:22.516Z,96.89
2022-11-16T00:18:37.541Z,95.01
2022-11-16T00:18:52.521Z,95.63
2022-11-16T00:19:07.516Z,96.75
2022-11-16T00:19:22.545Z,93.58
2022-11-16T00:19:37.543Z,93.55
2022-11-16T00:19:52.510Z,94.57
2022-11-16T00:20:07.511Z,96.21
2022-11-16T00:20:22.502Z,96.25
2022-11-16T00:20:37.506Z,97.11
2022-11-16T00:20:52.501Z,97.71
2022-11-16T00:21:07.557Z,95.97
2022-11-16T00:21:22.500Z,99.59
2022-11-16T00:21:37.508Z,96.33
2022-11-16T00:21:52.502Z,95.43
2022-11-16T00:22:07.507Z,97.68
2022-11-16T00:22:22.495Z,97.97
2022-11-16T00:22:37.498Z,98.43
2022-11-16T00:22:52.487Z,98.18
2022-11-16T00:23:07.490Z,98.57
2022-11-16T00:23:22.486Z,100.10
2022-11-16T00:23:37.502Z,97.54
2022-11-16T00:23:52.490Z,99.86
2022-11-16T00:24:07.491Z,98.87
2022-11-16T00:24:22.494Z,98.62
2022-11-16T00:24:37.477Z,97.61
2022-11-16T00:24:52.482Z,98.18
2022-11-16T00:25:07.487Z,99.37
2022-11-16T00:25:22.501Z,99.81
2022-11-16T00:25:37.487Z,100.03
2022-11-16T00:25:52.481Z,96.60
2022-11-16T00:26:07.514Z,98.57
2022-11-16T00:26:22.478Z,97.06
2022-11-16T00:26:37.475Z,98.27
2022-11-16T00:26:52.474Z,98.50
2022-11-16T00:27:07.473Z,100.52
2022-11-16T00:27:22.484Z,100.81
2022-11-16T00:27:37.477Z,99.61
2022-11-16T00:27:52.461Z,99.05
2022-11-16T00:28:07.461Z,100.47
2022-11-16T00:28:22.471Z,98.59
2022-11-16T00:28:37.499Z,99.61
2022-11-16T00:28:52.470Z,99.03
2022-11-16T00:29:07.461Z,98.91
2022-11-16T00:29:22.466Z,100.64
2022-11-16T00:29:37.455Z,102.04
2022-11-16T00:29:52.476Z,100.51
2022-11-16T00:30:07.467Z,101.51
2022-11-16T00:30:22.447Z,102.48
2022-11-16T00:30:37.458Z,100.77
2022-11-16T00:30:52.471Z,104.05
2022-11-16T00:31:07.463Z,100.29
2022-11-16T00:31:22.503Z,102.18
2022-11-16T00:31:37.452Z,101.61
2022-11-16T00:31:52.450Z,101.88
2022-11-16T00:32:07.437Z,102.12
2022-11-16T00:32:22.436Z,102.35
2022-11-16T00:32:37.445Z,100.18
2022-11-16T00:32:52.457Z,101.18
2022-11-16T00:33:07.442Z,101.89
2022-11-16T00:33:22.432Z,99.83
2022-11-16T00:33:37.446Z,103.29
2022-11-16T00:33:52.457Z,102.35
2022-11-16T00:34:07.430Z,101.58
2022-11-16T00:34:22.451Z,101.01
2022-11-16T00:34:37.441Z,103.81
2022-11-16T00:34:52.431Z,105.23
2022-11-16T00:35:07.439Z,104.43
2022-11-16T00:35:22.421Z,103.92
2022-11-16T00:35:37.441Z,105.08
2022-11-16T00:35:52.425Z,103.00
2022-11-16T00:36:07.421Z,101.33
2022-11-16T00:36:22.428Z,102.28
2022-11-16T00:36:37.446Z,102.19
2022-11-16T00:36:52.420Z,104.45
2022-11-16T00:37:07.416Z,102.44
2022-11-16T00:37:22.412Z,103.64
2022-11-16T00:37:37.410Z,102.85
2022-11-16T00:37:52.475Z,104.00
2022-11-16T00:38:07.441Z,104.31
2022-11-16T00:38:22.414Z,103.97
2022-11-16T00:38:37.411Z,105.68
2022-11-16T00:38:52.414Z,102.77
2022-11-16T00:39:07.421Z,102.71
2022-11-16T00:39:22.404Z,105.65
2022-11-16T00:39:37.416Z,106.31
2022-11-16T00:39:52.407Z,107.00
2022-11-16T00:40:07.405Z,107.00
2022-11-16T00:40:22.413Z,105.56
2022-11-16T00:40:37.406Z,104.29
2022-11-16T00:40:52.393Z,106.42
2022-11-16T00:41:07.395Z,104.25
2022-11-16T00:41:22.401Z,107.95
2022-11-16T00:41:37.390Z,105.60
2022-11-16T00:41:52.397Z,106.14
2022-11-16T00:42:07.391Z,105.22
2022-11-16T00:42:22.386Z,104.33
2022-11-16T00:42:37.390Z,104.81
2022-11-16T00:42:52.387Z,109.50
2022-11-16T00:43:07.426Z,106.18
2022-11-16T00:43:22.385Z,107.92
2022-11-16T00:43:37.386Z,108.63
2022-11-16T00:43:52.420Z,108.86
2022-11-16T00:44:07.390Z,108.50
2022-11-16T00:44:22.405Z,106.11
2022-11-16T00:44:37.370Z,109.59
2022-11-16T00:44:52.380Z,107.13
2022-11-16T00:45:07.395Z,106.93
2022-11-16T00:45:22.366Z,105.24
2022-11-16T00:45:37.386Z,109.54
2022-11-16T00:45:52.360Z,107.19
2022-11-16T00:46:07.375Z,109.95
2022-11-16T00:46:22.370Z,108.33
2022-11-16T00:46:37.365Z,110.67
2022-11-16T00:46:52.360Z,110.19
2022-11-16T00:47:07.366Z,108.80
2022-11-16T00:47:22.356Z,108.88
2022-11-16T00:47:37.368Z,107.67
2022-11-16T00:47:55.279Z,109.96
2022-11-16T00:48:08.361Z,110.00
2022-11-16T00:48:22.352Z,110.07
2022-11-16T00:48:37.361Z,110.14
2022-11-16T00:48:52.347Z,110.13
2022-11-16T00:49:07.384Z,110.21
2022-11-16T00:49:22.348Z,109.97
2022-11-16T00:49:37.346Z,108.68
2022-11-16T00:49:52.350Z,110.05
2022-11-16T00:50:07.362Z,110.50
2022-11-16T00:50:22.344Z,110.34
2022-11-16T00:50:37.345Z,109.46
2022-11-16T00:50:52.342Z,109.38
2022-11-16T00:51:07.335Z,109.23
2022-11-16T00:51:22.346Z,109.09
2022-11-16T00:51:37.336Z,108.75
2022-11-16T00:51:52.346Z,111.69
2022-11-16T00:52:07.326Z,109.64
2022-11-16T00:52:22.336Z,110.46
2022-11-16T00:52:37.340Z,109.73
2022-11-16T00:52:52.321Z,107.78
2022-11-16T00:53:07.334Z,108.74
2022-11-16T00:53:22.331Z,113.48
2022-11-16T00:53:37.331Z,112.25
2022-11-16T00:53:52.321Z,109.85
2022-11-16T00:54:07.321Z,110.50
2022-11-16T00:54:22.378Z,109.57
2022-11-16T00:54:37.326Z,106.96
2022-11-16T00:54:52.323Z,109.04
2022-11-16T00:55:07.337Z,110.79
2022-11-16T00:55:22.327Z,111.39
2022-11-16T00:55:37.320Z,110.80
2022-11-16T00:55:52.309Z,112.98
2022-11-16T00:56:07.316Z,113.31
2022-11-16T00:56:22.321Z,111.32
2022-11-16T00:56:37.319Z,111.76
2022-11-16T00:56:52.328Z,111.38
2022-11-16T00:57:07.311Z,113.01
2022-11-16T00:57:22.306Z,113.86
2022-11-16T00:57:37.303Z,111.80
2022-11-16T00:57:52.301Z,111.27
2022-11-16T00:58:07.297Z,112.36
2022-11-16T00:58:22.296Z,114.93
2022-11-16T00:58:37.297Z,113.65
2022-11-16T00:58:52.300Z,113.69
2022-11-16T00:59:07.303Z,113.38
2022-11-16T00:59:22.303Z,112.59
2022-11-16T00:59:37.319Z,113.17
2022-11-16T00:59:52.287Z,112.27
2022-11-16T01:00:07.288Z,114.74
2022-11-16T01:00:22.315Z,115.95
2022-11-16T01:00:37.300Z,115.23
2022-11-16T01:00:52.363Z,116.00
2022-11-16T01:01:07.404Z,112.21
2022-11-16T01:01:22.311Z,113.33
2022-11-16T01:01:37.356Z,116.56
2022-11-16T01:01:52.361Z,113.33
2022-11-16T01:02:07.275Z,114.67
2022-11-16T01:02:22.282Z,113.26
2022-11-16T01:02:37.277Z,113.96
2022-11-16T01:02:52.276Z,113.69
2022-11-16T01:03:07.281Z,115.84
2022-11-16T01:03:22.278Z,115.83
2022-11-16T01:03:37.266Z,113.21
2022-11-16T01:03:52.278Z,115.39
2022-11-16T01:04:07.271Z,117.32
2022-11-16T01:04:22.268Z,116.94
2022-11-16T01:04:37.265Z,113.21
2022-11-16T01:04:52.262Z,114.83
2022-11-16T01:05:07.275Z,117.13
2022-11-16T01:05:22.265Z,114.71
2022-11-16T01:05:37.287Z,116.20
2022-11-16T01:05:52.253Z,113.20
2022-11-16T01:06:07.264Z,115.41
2022-11-16T01:06:22.266Z,116.06
2022-11-16T01:06:37.260Z,119.04
2022-11-16T01:06:52.268Z,117.24
2022-11-16T01:07:07.289Z,118.13
2022-11-16T01:07:22.279Z,120.84
2022-11-16T01:07:37.299Z,117.71
2022-11-16T01:07:52.258Z,117.57
2022-11-16T01:08:07.246Z,118.50
2022-11-16T01:08:22.246Z,116.79
2022-11-16T01:08:37.308Z,120.97
2022-11-16T01:08:52.251Z,119.04
2022-11-16T01:09:07.250Z,117.18
2022-11-16T01:09:22.244Z,114.79
2022-11-16T01:09:37.236Z,117.94
2022-11-16T01:09:52.250Z,116.05
2022-11-16T01:10:07.225Z,119.18
2022-11-16T01:10:22.231Z,114.89
2022-11-16T01:10:37.247Z,117.10
2022-11-16T01:10:52.274Z,117.87
2022-11-16T01:11:07.243Z,117.54
2022-11-16T01:11:22.237Z,116.29
2022-11-16T01:11:37.266Z,118.36
2022-11-16T01:11:52.218Z,121.60
2022-11-16T01:12:07.218Z,119.04
2022-11-16T01:12:22.220Z,116.62
2022-11-16T01:12:37.223Z,118.35
2022-11-16T01:12:52.215Z,117.38
2022-11-16T01:13:07.229Z,117.80
2022-11-16T01:13:22.211Z,118.13
2022-11-16T01:13:37.218Z,121.47
2022-11-16T01:13:52.213Z,119.64
2022-11-16T01:14:07.222Z,120.22
2022-11-16T01:14:22.228Z,117.56
2022-11-16T01:14:37.236Z,120.00
2022-11-16T01:14:52.206Z,119.34
2022-11-16T01:15:07.200Z,120.51
2022-11-16T01:15:22.213Z,120.13
2022-11-16T01:15:37.226Z,120.43
2022-11-16T01:15:52.211Z,120.22
2022-11-16T01:16:07.206Z,120.82
2022-11-16T01:16:22.197Z,121.04
2022-11-16T01:16:37.205Z,121.36
2022-11-16T01:16:52.232Z,117.28
2022-11-16T01:17:07.202Z,117.59
2022-11-16T01:17:22.199Z,122.07
2022-11-16T01:17:37.205Z,120.59
2022-11-16T01:17:52.200Z,118.79
2022-11-16T01:18:07.185Z,120.43
2022-11-16T01:18:22.190Z,120.86
2022-11-16T01:18:37.186Z,121.39
2022-11-16T01:18:52.185Z,121.04
2022-11-16T01:19:07.175Z,119.89
2022-11-16T01:19:22.197Z,121.34
2022-11-16T01:19:37.196Z,123.35
2022-11-16T01:19:52.188Z,124.92
2022-11-16T01:20:07.192Z,122.72
2022-11-16T01:20:22.191Z,123.16
2022-11-16T01:20:37.178Z,123.39
2022-11-16T01:20:52.177Z,122.29
2022-11-16T01:21:07.196Z,122.77
2022-11-16T01:21:22.187Z,121.66
2022-11-16T01:21:37.173Z,124.34
2022-11-16T01:21:52.171Z,124.80
2022-11-16T01:22:07.186Z,124.50
2022-11-16T01:22:22.169Z,123.34
2022-11-16T01:22:37.173Z,123.06
2022-11-16T01:22:52.174Z,125.27
2022-11-16T01:23:07.165Z,124.70
2022-11-16T01:23:22.166Z,121.94
2022-11-16T01:23:37.158Z,123.07
2022-11-16T01:23:52.165Z,125.52
2022-11-16T01:24:07.162Z,121.60
2022-11-16T01:24:22.156Z,122.80
2022-11-16T01:24:37.155Z,125.05
2022-11-16T01:24:52.157Z,123.36
2022-11-16T01:25:07.149Z,121.96
2022-11-16T01:25:22.166Z,125.02
2022-11-16T01:25:37.161Z,123.45
2022-11-16T01:25:52.155Z,123.56
2022-11-16T01:26:07.146Z,122.11
2022-11-16T01:26:22.157Z,124.09
2022-11-16T01:26:37.153Z,122.99
2022-11-16T01:26:52.152Z,124.50
2022-11-16T01:27:07.135Z,124.04
2022-11-16T01:27:22.176Z,124.26
2022-11-16T01:27:37.135Z,124.53
2022-11-16T01:27:52.148Z,126.41
2022-11-16T01:28:07.165Z,126.02
2022-11-16T01:28:22.140Z,125.58
2022-11-16T01:28:37.276Z,126.84
2022-11-16T01:28:52.141Z,125.12
2022-11-16T01:29:07.131Z,126.38
2022-11-16T01:29:22.125Z,124.41
2022-11-16T01:29:37.120Z,125.33
2022-11-16T01:29:52.161Z,125.87
2022-11-16T01:30:07.120Z,126.43
2022-11-16T01:30:22.136Z,125.72
2022-11-16T01:30:37.126Z,122.14
2022-11-16T01:30:52.120Z,126.89
2022-11-16T01:31:07.118Z,126.95
2022-11-16T01:31:22.138Z,128.19
2022-11-16T01:31:37.119Z,126.06
2022-11-16T01:31:52.127Z,125.84
2022-11-16T01:32:07.111Z,127.77
2022-11-16T01:32:22.111Z,128.51
2022-11-16T01:32:37.107Z,126.43
2022-11-16T01:32:52.112Z,124.94
2022-11-16T01:33:07.108Z,128.26
2022-11-16T01:33:22.132Z,125.27
2022-11-16T01:33:37.126Z,125.22
2022-11-16T01:33:52.113Z,126.20
2022-11-16T01:34:07.128Z,127.37
2022-11-16T01:34:22.102Z,126.87
2022-11-16T01:34:37.109Z,127.12
2022-11-16T01:34:52.097Z,128.70
2022-11-16T01:35:07.093Z,126.96
2022-11-16T01:35:22.097Z,126.21
2022-11-16T01:35:37.128Z,128.42
2022-11-16T01:35:52.091Z,126.66
2022-11-16T01:36:07.093Z,128.90
2022-11-16T01:36:22.086Z,127.71
2022-11-16T01:36:37.162Z,128.07
2022-11-16T01:36:52.130Z,127.25
2022-11-16T01:37:07.094Z,126.83
2022-11-16T01:37:22.085Z,127.64
2022-11-16T01:37:37.075Z,128.32
2022-11-16T01:37:52.085Z,129.85
2022-11-16T01:38:07.076Z,128.11
2022-11-16T01:38:24.874Z,129.78
2022-11-16T01:38:38.077Z,129.82
2022-11-16T01:38:52.077Z,129.92
2022-11-16T01:39:07.085Z,129.89
2022-11-16T01:39:22.113Z,129.93
2022-11-16T01:39:37.071Z,129.98
2022-11-16T01:39:52.076Z,129.83
2022-11-16T01:40:07.062Z,129.99
2022-11-16T01:40:22.061Z,130.00
2022-11-16T01:40:37.066Z,129.37
2022-11-16T01:40:52.063Z,129.00
2022-11-16T01:41:07.067Z,127.71
2022-11-16T01:41:22.062Z,128.83
2022-11-16T01:41:37.061Z,129.42
2022-11-16T01:41:52.060Z,128.85
2022-11-16T01:42:07.049Z,129.61
2022-11-16T01:42:22.067Z,132.02
2022-11-16T01:42:37.052Z,130.38
2022-11-16T01:42:52.051Z,130.63
2022-11-16T01:43:07.048Z,128.58
2022-11-16T01:43:22.046Z,128.43
2022-11-16T01:43:37.048Z,127.92
2022-11-16T01:43:52.040Z,130.01
2022-11-16T01:44:07.062Z,129.27
2022-11-16T01:44:22.042Z,131.59
2022-11-16T01:44:37.107Z,132.17
2022-11-16T01:44:52.041Z,133.18
2022-11-16T01:45:07.041Z,131.03
2022-11-16T01:45:22.047Z,130.94
2022-11-16T01:45:37.065Z,128.88
2022-11-16T01:45:52.042Z,129.51
2022-11-16T01:46:07.046Z,132.15
2022-11-16T01:46:22.039Z,131.84
2022-11-16T01:46:37.030Z,131.42
2022-11-16T01:46:52.026Z,130.88
2022-11-16T01:47:07.046Z,130.60
2022-11-16T01:47:22.051Z,132.76
2022-11-16T01:47:37.037Z,131.94
2022-11-16T01:47:52.092Z,131.62
2022-11-16T01:48:07.044Z,133.48
2022-11-16T01:48:22.089Z,132.42
2022-11-16T01:48:37.481Z,134.19
2022-11-16T01:48:52.119Z,132.67
2022-11-16T01:49:07.031Z,130.02
2022-11-16T01:49:22.018Z,132.49
2022-11-16T01:49:37.017Z,132.93
2022-11-16T01:49:52.042Z,129.89
2022-11-16T01:50:07.022Z,132.60
2022-11-16T01:50:22.013Z,131.24
2022-11-16T01:50:37.013Z,131.30
2022-11-16T01:50:52.012Z,132.86
2022-11-16T01:51:07.007Z,133.31
2022-11-16T01:51:22.004Z,133.99
2022-11-16T01:51:37.008Z,129.81
2022-11-16T01:51:52.016Z,133.08
2022-11-16T01:52:07.003Z,136.26
2022-11-16T01:52:22.001Z,132.65
2022-11-16T01:52:37.012Z,135.16
2022-11-16T01:52:51.999Z,135.82
2022-11-16T01:53:07.001Z,134.79
2022-11-16T01:53:22.002Z,134.33
2022-11-16T01:53:36.998Z,134.26
2022-11-16T01:53:51.986Z,132.53
2022-11-16T01:54:06.995Z,134.43
2022-11-16T01:54:22.002Z,135.04
2022-11-16T01:54:37.018Z,134.66
2022-11-16T01:54:52.050Z,134.67
2022-11-16T01:55:06.986Z,133.96
2022-11-16T01:55:21.994Z,133.92
2022-11-16T01:55:36.989Z,133.15
2022-11-16T01:55:51.983Z,134.85
2022-11-16T01:56:06.987Z,132.14
2022-11-16T01:56:21.981Z,135.22
2022-11-16T01:56:36.987Z,137.93
2022-11-16T01:56:51.972Z,136.11
2022-11-16T01:57:06.976Z,135.86
2022-11-16T01:57:21.996Z,135.31
2022-11-16T01:57:36.970Z,136.31
2022-11-16T01:57:51.977Z,133.73
2022-11-16T01:58:06.966Z,134.32
2022-11-16T01:58:21.975Z,132.78
2022-11-16T01:58:37.035Z,135.11
2022-11-16T01:58:51.965Z,135.79
2022-11-16T01:59:06.972Z,137.27
2022-11-16T01:59:21.961Z,137.50
2022-11-16T01:59:36.963Z,136.56
2022-11-16T01:59:51.963Z,136.71
2022-11-16T02:00:06.995Z,137.86
2022-11-16T02:00:21.961Z,135.19
2022-11-16T02:00:36.956Z,134.30
2022-11-16T02:00:52.014Z,135.72
2022-11-16T02:01:06.998Z,137.82
2022-11-16T02:01:22.052Z,135.33
2022-11-16T02:01:37.039Z,132.50
2022-11-16T02:01:51.958Z,137.16
2022-11-16T02:02:06.972Z,136.46
2022-11-16T02:02:21.947Z,136.23
2022-11-16T02:02:36.944Z,135.68
2022-11-16T02:02:51.957Z,139.30
2022-11-16T02:03:06.950Z,138.00
2022-11-16T02:03:21.937Z,137.42
2022-11-16T02:03:36.936Z,137.03
2022-11-16T02:03:51.938Z,136.34
2022-11-16T02:04:06.946Z,138.59
2022-11-16T02:04:21.937Z,135.78
2022-11-16T02:04:36.940Z,138.62
2022-11-16T02:04:51.942Z,136.63
2022-11-16T02:05:06.931Z,135.57
2022-11-16T02:05:21.932Z,137.52
2022-11-16T02:05:36.928Z,137.99
2022-11-16T02:05:51.930Z,138.60
2022-11-16T02:06:06.929Z,139.48
2022-11-16T02:06:21.930Z,138.72
2022-11-16T02:06:36.927Z,137.13
2022-11-16T02:06:51.988Z,138.75
2022-11-16T02:07:06.966Z,137.90
2022-11-16T02:07:22.024Z,138.10
2022-11-16T02:07:36.970Z,139.15
2022-11-16T02:07:51.917Z,140.11
2022-11-16T02:08:06.946Z,140.68
2022-11-16T02:08:21.922Z,140.39
2022-11-16T02:08:36.920Z,138.62
2022-11-16T02:08:51.915Z,138.78
2022-11-16T02:09:06.905Z,139.51
2022-11-16T02:09:21.915Z,138.87
2022-11-16T02:09:36.915Z,139.77
2022-11-16T02:09:51.925Z,141.43
2022-11-16T02:10:06.919Z,141.80
2022-11-16T02:10:21.909Z,138.90
2022-11-16T02:10:36.900Z,141.73
2022-11-16T02:10:51.904Z,139.86
2022-11-16T02:11:06.900Z,143.52
2022-11-16T02:11:21.911Z,138.95
2022-11-16T02:11:36.897Z,141.21
2022-11-16T02:11:51.908Z,142.31
2022-11-16T02:12:06.891Z,143.97
2022-11-16T02:12:21.890Z,142.64
2022-11-16T02:12:36.887Z,140.33
2022-11-16T02:12:51.897Z,142.33
2022-11-16T02:13:06.885Z,142.66
2022-11-16T02:13:21.923Z,139.63
2022-11-16T02:13:36.890Z,143.90
2022-11-16T02:13:51.885Z,142.48
2022-11-16T02:14:06.881Z,140.27
2022-11-16T02:14:21.880Z,143.42
2022-11-16T02:14:36.877Z,141.35
2022-11-16T02:14:51.910Z,141.74
2022-11-16T02:15:06.892Z,141.64
2022-11-16T02:15:21.878Z,142.93
2022-11-16T02:15:36.890Z,139.31
2022-11-16T02:15:51.878Z,142.57
2022-11-16T02:16:06.875Z,141.29
2022-11-16T02:16:21.875Z,141.74
2022-11-16T02:16:36.885Z,143.86
2022-11-16T02:16:51.876Z,142.66
2022-11-16T02:17:06.872Z,141.50
2022-11-16T02:17:21.870Z,142.68
2022-11-16T02:17:36.867Z,141.46
2022-11-16T02:17:51.866Z,142.74
2022-11-16T02:18:06.865Z,141.14
2022-11-16T02:18:21.866Z,141.33
2022-11-16T02:18:37.029Z,141.41
2022-11-16T02:18:51.868Z,142.20
2022-11-16T02:19:06.855Z,142.86
2022-11-16T02:19:21.860Z,143.22
2022-11-16T02:19:36.847Z,144.98
2022-11-16T02:19:51.851Z,142.85
2022-11-16T02:20:06.901Z,142.74
2022-11-16T02:20:21.865Z,145.29
2022-11-16T02:20:36.847Z,144.39
2022-11-16T02:20:51.851Z,144.89
2022-11-16T02:21:06.846Z,142.41
2022-11-16T02:21:21.856Z,141.72
2022-11-16T02:21:36.841Z,143.76
2022-11-16T02:21:51.840Z,142.09
2022-11-16T02:22:06.844Z,142.44
2022-11-16T02:22:21.841Z,144.36
2022-11-16T02:22:36.843Z,141.94
2022-11-16T02:22:51.862Z,143.05
2022-11-16T02:23:06.841Z,140.19
2022-11-16T02:23:21.867Z,144.57
2022-11-16T02:23:36.830Z,144.47
2022-11-16T02:23:51.895Z,145.00
2022-11-16T02:24:06.870Z,144.24
2022-11-16T02:24:21.825Z,141.91
2022-11-16T02:24:36.826Z,142.37
2022-11-16T02:24:51.826Z,142.74
2022-11-16T02:25:06.831Z,142.86
2022-11-16T02:25:21.840Z,145.49
2022-11-16T02:25:36.825Z,143.59
2022-11-16T02:25:51.820Z,143.47
2022-11-16T02:26:06.820Z,141.79
2022-11-16T02:26:21.820Z,144.12
2022-11-16T02:26:36.815Z,146.50
2022-11-16T02:26:51.815Z,144.12
2022-11-16T02:27:06.821Z,145.00
2022-11-16T02:27:21.809Z,144.04
2022-11-16T02:27:36.809Z,144.03
2022-11-16T02:27:51.807Z,144.12
2022-11-16T02:28:06.804Z,145.62
2022-11-16T02:28:21.805Z,148.06
2022-11-16T02:28:36.947Z,145.92
2022-11-16T02:28:51.804Z,147.57
2022-11-16T02:29:06.800Z,148.95
2022-11-16T02:29:21.791Z,148.36
2022-11-16T02:29:36.794Z,147.66
2022-11-16T02:29:51.798Z,144.52
2022-11-16T02:30:06.792Z,146.99
2022-11-16T02:30:21.835Z,148.12
2022-11-16T02:30:36.801Z,144.78
2022-11-16T02:30:51.796Z,146.34
2022-11-16T02:31:06.791Z,147.52
2022-11-16T02:31:21.788Z,148.36
2022-11-16T02:31:36.787Z,146.95
2022-11-16T02:31:51.787Z,144.53
2022-11-16T02:32:06.780Z,145.14
2022-11-16T02:32:21.774Z,146.93
2022-11-16T02:32:36.790Z,147.68
2022-11-16T02:32:51.777Z,147.53
2022-11-16T02:33:06.776Z,147.05
2022-11-16T02:33:21.780Z,147.04
2022-11-16T02:33:36.771Z,149.51
2022-11-16T02:33:51.775Z,149.38
2022-11-16T02:34:06.775Z,151.00
2022-11-16T02:34:21.777Z,149.71
2022-11-16T02:34:36.767Z,150.26
2022-11-16T02:34:51.773Z,146.03
2022-11-16T02:35:06.755Z,145.39
2022-11-16T02:35:21.755Z,147.46
2022-11-16T02:35:36.801Z,144.94
2022-11-16T02:35:51.773Z,149.18
2022-11-16T02:36:06.770Z,145.38
2022-11-16T02:36:21.760Z,146.32
2022-11-16T02:36:36.761Z,147.65
2022-11-16T02:36:51.766Z,150.47
2022-11-16T02:37:06.755Z,149.87
2022-11-16T02:37:21.766Z,147.16
2022-11-16T02:37:36.770Z,149.57
2022-11-16T02:37:51.752Z,149.52
2022-11-16T02:38:06.746Z,148.75
2022-11-16T02:38:21.744Z,150.47
2022-11-16T02:38:36.936Z,151.11
2022-11-16T02:38:51.744Z,151.44
2022-11-16T02:39:06.744Z,148.25
2022-11-16T02:39:21.751Z,148.52
2022-11-16T02:39:36.740Z,147.71
2022-11-16T02:39:51.739Z,148.93
2022-11-16T02:40:06.742Z,149.95
2022-11-16T02:40:21.741Z,150.19
2022-11-16T02:40:36.780Z,151.51
2022-11-16T02:40:51.765Z,150.88
2022-11-16T02:41:06.735Z,152.40
2022-11-16T02:41:21.730Z,151.24
2022-11-16T02:41:36.734Z,152.70
2022-11-16T02:41:51.725Z,150.57
2022-11-16T02:42:06.735Z,152.40
2022-11-16T02:42:21.734Z,151.62
2022-11-16T02:42:36.718Z,150.14
2022-11-16T02:42:51.725Z,151.20
2022-11-16T02:43:06.719Z,150.32
2022-11-16T02:43:21.720Z,150.93
2022-11-16T02:43:36.715Z,152.64
2022-11-16T02:43:51.719Z,150.69
2022-11-16T02:44:06.719Z,149.64
2022-11-16T02:44:21.719Z,150.24
2022-11-16T02:44:36.695Z,151.37
2022-11-16T02:44:51.711Z,153.86
2022-11-16T02:45:06.706Z,151.07
2022-11-16T02:45:21.709Z,149.53
2022-11-16T02:45:36.704Z,151.89
2022-11-16T02:45:51.717Z,152.52
2022-11-16T02:46:06.736Z,150.56
2022-11-16T02:46:21.705Z,149.92
2022-11-16T02:46:36.711Z,149.58
2022-11-16T02:46:51.699Z,151.01
2022-11-16T02:47:06.705Z,153.14
2022-11-16T02:47:21.715Z,152.07
2022-11-16T02:47:36.700Z,151.57
2022-11-16T02:47:51.696Z,150.56
2022-11-16T02:48:06.705Z,152.47
2022-11-16T02:48:21.693Z,151.25
2022-11-16T02:48:36.873Z,152.07
2022-11-16T02:48:51.688Z,150.60
2022-11-16T02:49:06.684Z,152.13
2022-11-16T02:49:21.687Z,152.31
2022-11-16T02:49:36.678Z,150.21
2022-11-16T02:49:51.689Z,152.10
2022-11-16T02:50:06.679Z,149.17
2022-11-16T02:50:21.680Z,151.57
2022-11-16T02:50:36.679Z,152.70
2022-11-16T02:50:51.677Z,153.46
2022-11-16T02:51:06.685Z,155.57
2022-11-16T02:51:21.694Z,153.62
2022-11-16T02:51:36.685Z,152.18
2022-11-16T02:51:51.675Z,152.19
2022-11-16T02:52:06.676Z,155.16
2022-11-16T02:52:21.684Z,155.38
2022-11-16T02:52:36.671Z,154.49
2022-11-16T02:52:51.669Z,150.16
2022-11-16T02:53:06.667Z,155.11
2022-11-16T02:53:21.715Z,155.96
2022-11-16T02:53:36.671Z,154.21
2022-11-16T02:53:51.693Z,156.21
2022-11-16T02:54:06.659Z,156.91
2022-11-16T02:54:21.690Z,155.14
2022-11-16T02:54:36.654Z,154.08
2022-11-16T02:54:51.669Z,154.73
2022-11-16T02:55:06.658Z,155.08
2022-11-16T02:55:21.654Z,154.14
2022-11-16T02:55:36.688Z,154.05
2022-11-16T02:55:51.673Z,155.04
2022-11-16T02:56:06.654Z,154.27
2022-11-16T02:56:21.655Z,153.07
2022-11-16T02:56:36.656Z,155.79
2022-11-16T02:56:51.646Z,154.40
2022-11-16T02:57:06.649Z,155.27
2022-11-16T02:57:21.641Z,155.49
2022-11-16T02:57:36.644Z,155.32
2022-11-16T02:57:51.656Z,152.73
2022-11-16T02:58:06.640Z,156.16
2022-11-16T02:58:21.646Z,156.56
2022-11-16T02:58:36.881Z,155.12
2022-11-16T02:58:51.639Z,154.72
2022-11-16T02:59:06.636Z,153.02
2022-11-16T02:59:21.639Z,155.84
2022-11-16T02:59:36.625Z,155.81
2022-11-16T02:59:51.624Z,156.72
2022-11-16T03:00:06.640Z,155.29
2022-11-16T03:00:21.626Z,156.26
2022-11-16T03:00:36.713Z,155.69
2022-11-16T03:00:51.690Z,155.04
2022-11-16T03:01:06.716Z,154.55
2022-11-16T03:01:21.669Z,156.04
2022-11-16T03:01:36.625Z,155.74
2022-11-16T03:01:51.618Z,155.48
2022-11-16T03:02:06.614Z,154.92
2022-11-16T03:02:21.631Z,154.94
2022-11-16T03:02:36.614Z,157.90
2022-11-16T03:02:51.608Z,156.86
2022-11-16T03:03:06.610Z,156.19
2022-11-16T03:03:21.612Z,157.20
2022-11-16T03:03:36.609Z,155.13
2022-11-16T03:03:51.611Z,158.54
2022-11-16T03:04:06.619Z,156.77
2022-11-16T03:04:21.599Z,158.35
2022-11-16T03:04:36.599Z,158.83
2022-11-16T03:04:51.595Z,155.74
2022-11-16T03:05:06.610Z,158.22
2022-11-16T03:05:21.612Z,156.65
2022-11-16T03:05:36.609Z,158.25
2022-11-16T03:05:51.630Z,157.90
2022-11-16T03:06:06.595Z,157.12
2022-11-16T03:06:21.584Z,158.66
2022-11-16T03:06:36.589Z,157.98
2022-11-16T03:06:51.623Z,156.71
2022-11-16T03:07:06.624Z,158.13
2022-11-16T03:07:21.615Z,157.75
2022-11-16T03:07:36.589Z,158.25
2022-11-16T03:07:51.597Z,160.15
2022-11-16T03:08:06.580Z,157.05